Terminal Aerodrome Forecast
Issued by NWS

Home | Current Version | Previous Version | Text Only | Print | Product List | Glossary On
Versions: 1 2 3 4 5 6 7 8 9 10 11 12 13 14 15 16 17 18 19 20 21
000
FTUS41 KCAR 302344
TAFPQI
TAF
KPQI 302344Z 0100/0124 VRB03KT P6SM SCT250
     FM011000 17006KT P6SM -RA OVC045
     FM011400 18011KT P6SM BKN030
     FM011700 16010G20KT P6SM -SHRA OVC025
     FM012000 16012KT P6SM -SHRA SCT020 OVC040
     FM012200 16009KT P6SM -SHRA OVC040
      AMD LTD TO CLD VIS AND WIND=

USA.gov is the U.S. government's official web portal to all federal, state and local government web resources and services.